Accueil
METAR-TAF:

METAR-TAF

Aéroports :

Aéroport de Santorin

Santorin, Grèce

latitude: 36-24N, longitude: 025-29E, altitude: 38 m

Observation

Le bulletin a été fait il y a 36 minutes, à 02:20 UTC
Vent 11 kt de nord/nord-ouest
Température 26°C
Humidité 65%
Pression 1005 hPa
Visibilité 10 km ou plus
Quelques nuages à une hauteur de 2500 ft

METAR: LGSR 200220Z 34011KT 9999 FEW025 26/19 Q1005

Heure: 05:56 (02:56 UTC)

Prévision

Le bulletin a été fait il y a 3 heures et 56 minutes, à 23:00 UTC
Prévision valable du 20 à 00 UTC au 20 à 24 UTC
Vent 18 kt de nord/nord-ouest
Visibilité 10 km ou plus
Quelques nuages à une hauteur de 2000 ft

TAF: LGSR 192300Z 2000/2024 33018KT 9999 FEW020

Observations et prévisions météorologiques de plus de 4000 aéroports (messages METAR et TAF).

Les stations disponibles sont représentées par des disques jaunes et rouges sur la carte.

Passer la souris dessus pour voir le nom de la station.

Cliquer dessus pour voir les observations et prévisions météorologiques.

Pour changer de carte: cliquez sur les boutons verts avec une croix noire pour zoomer, sur le bouton vert avec un tiret pour effectuer un zoom arrière, ou sur les flèches vertes pour les cartes adjacentes.


METAR-TAF: